Time;durP1;ratioP1;P1;durP2;ratioP2;P2;SDS_P1;SDS_P2;PMS_P1;PMS_P2;Temp;Humidity;BMP_temperature;BMP_pressure;BME280_temperature;BME280_humidity;BME280_pressure;Samples;Min_cycle;Max_cycle;Signal;HPM_P1;HPM_P2
2021/08/14 00:00:47;;;;;;;2.97;1.50;;;;;;;16.47;97.80;101871.84;6247404;28;20149;-80
2021/08/14 00:03:48;;;;;;;1.80;1.02;;;;;;;16.44;96.85;101865.88;6246686;28;20511;-81
2021/08/14 00:06:49;;;;;;;2.03;1.17;;;;;;;16.43;97.80;101869.47;6247096;28;20047;-81
2021/08/14 00:09:52;;;;;;;2.80;1.27;;;;;;;16.41;97.49;101874.03;6247311;28;20049;-81
2021/08/14 00:12:53;;;;;;;2.35;1.20;;;;;;;16.41;96.30;101860.78;6247469;28;20053;-80
2021/08/14 00:15:55;;;;;;;1.35;1.25;;;;;;;16.40;96.75;101861.72;6246688;28;20064;-81
2021/08/14 00:18:56;;;;;;;2.78;1.15;;;;;;;16.39;97.86;101865.31;6247303;28;20049;-81
2021/08/14 00:21:58;;;;;;;3.78;1.42;;;;;;;16.43;95.68;101869.47;6247210;28;20049;-81
2021/08/14 00:25:00;;;;;;;2.05;1.17;;;;;;;16.51;95.00;101869.88;6246689;28;20049;-81
2021/08/14 00:28:02;;;;;;;2.53;1.23;;;;;;;16.57;94.10;101872.16;6246968;28;20045;-80
2021/08/14 00:31:03;;;;;;;2.72;1.60;;;;;;;16.54;94.10;101877.66;6246706;28;20056;-81
2021/08/14 00:34:05;;;;;;;2.53;1.20;;;;;;;16.52;94.48;101874.22;6246672;28;20054;-82
2021/08/14 00:37:06;;;;;;;1.35;0.98;;;;;;;16.48;95.57;101878.00;6246774;28;20145;-80
2021/08/14 00:40:11;;;;;;;6.03;1.50;;;;;;;16.43;95.31;101877.44;6247163;28;20057;-82
2021/08/14 00:43:12;;;;;;;5.10;1.63;;;;;;;16.41;95.06;101868.72;6262379;28;20053;-82
2021/08/14 00:46:14;;;;;;;1.50;1.13;;;;;;;16.44;94.91;101869.41;6246531;28;20068;-81
2021/08/14 00:49:15;;;;;;;2.10;1.40;;;;;;;16.41;95.54;101872.25;6246866;28;20073;-81
2021/08/14 00:52:16;;;;;;;1.70;0.95;;;;;;;16.41;94.95;101866.94;6246910;28;20053;-80
2021/08/14 00:55:19;;;;;;;2.45;1.38;;;;;;;16.37;95.67;101870.72;6246397;28;20533;-81
2021/08/14 00:58:21;;;;;;;1.60;1.25;;;;;;;16.31;96.39;101856.97;6247005;28;20056;-81
2021/08/14 01:01:23;;;;;;;1.20;0.80;;;;;;;16.24;97.63;101862.63;6246495;28;20060;-81
2021/08/14 01:04:25;;;;;;;1.20;0.93;;;;;;;16.19;97.90;101867.34;6246226;28;20060;-81
2021/08/14 01:07:26;;;;;;;1.67;1.10;;;;;;;16.15;97.92;101868.47;6246511;28;20424;-81
2021/08/14 01:10:29;;;;;;;3.28;1.50;;;;;;;16.09;97.60;101860.03;6246724;28;20053;-81
2021/08/14 01:13:33;;;;;;;2.90;1.15;;;;;;;16.03;98.00;101860.38;6246253;28;20049;-81
2021/08/14 01:16:34;;;;;;;2.80;1.25;;;;;;;15.99;98.93;101859.72;6246460;28;20053;-81
2021/08/14 01:19:36;;;;;;;1.67;1.00;;;;;;;15.94;99.89;101859.09;6251104;28;20076;-80
2021/08/14 01:22:39;;;;;;;3.72;1.67;;;;;;;15.94;99.31;101860.00;6251009;28;20060;-81
2021/08/14 01:25:43;;;;;;;2.95;1.73;;;;;;;15.91;99.22;101852.22;6251085;28;20045;-81
2021/08/14 01:28:46;;;;;;;3.13;1.67;;;;;;;15.87;99.68;101852.47;6250893;28;20050;-81
2021/08/14 01:31:47;;;;;;;1.40;1.20;;;;;;;15.82;99.71;101835.97;6250943;28;20401;-80
2021/08/14 01:34:49;;;;;;;3.47;1.45;;;;;;;15.76;99.40;101833.66;6250738;28;20053;-81
2021/08/14 01:37:50;;;;;;;1.42;1.05;;;;;;;15.71;99.90;101837.47;6250964;28;20041;-82
2021/08/14 01:40:52;;;;;;;3.30;1.60;;;;;;;15.67;99.70;101848.31;6251064;28;20072;-80
2021/08/14 01:43:58;;;;;;;2.95;1.27;;;;;;;15.59;100.00;101850.53;6250104;28;20049;-81
2021/08/14 01:47:00;;;;;;;1.98;1.30;;;;;;;15.55;100.00;101841.88;6250678;28;20480;-81
2021/08/14 01:50:02;;;;;;;2.50;1.38;;;;;;;15.52;100.00;101854.44;6250673;28;20050;-81
2021/08/14 01:53:03;;;;;;;2.03;1.48;;;;;;;15.47;100.00;101834.34;6250624;28;20050;-81
2021/08/14 01:56:04;;;;;;;2.38;1.63;;;;;;;15.44;100.00;101845.16;6250211;28;20055;-81
2021/08/14 01:59:07;;;;;;;2.58;1.60;;;;;;;15.42;100.00;101843.50;6250504;28;20057;-81
2021/08/14 02:02:09;;;;;;;2.40;1.63;;;;;;;15.40;100.00;101835.66;6250368;28;20053;-80
2021/08/14 02:05:11;;;;;;;5.00;1.60;;;;;;;15.37;100.00;101841.13;6249847;28;20056;-80
2021/08/14 02:08:12;;;;;;;5.35;1.55;;;;;;;15.35;100.00;101842.13;6250099;28;20050;-81
2021/08/14 02:11:15;;;;;;;2.42;1.23;;;;;;;15.34;100.00;101843.94;6249934;28;20455;-81
2021/08/14 02:14:18;;;;;;;1.90;1.48;;;;;;;15.31;100.00;101836.19;6250025;28;20053;-81
2021/08/14 02:17:19;;;;;;;2.95;1.42;;;;;;;15.28;100.00;101843.44;6249840;28;20057;-82
2021/08/14 02:20:20;;;;;;;2.17;1.65;;;;;;;15.21;100.00;101835.84;6249965;28;20393;-81
2021/08/14 02:23:22;;;;;;;4.10;1.38;;;;;;;15.16;100.00;101837.84;6249828;28;20053;-81
2021/08/14 02:26:24;;;;;;;3.60;1.75;;;;;;;15.13;100.00;101822.16;6249682;28;20057;-81
2021/08/14 02:29:26;;;;;;;2.28;1.40;;;;;;;15.13;100.00;101832.75;6249816;28;20049;-81
2021/08/14 02:32:28;;;;;;;1.98;1.48;;;;;;;15.14;100.00;101820.38;6249880;28;20501;-81
2021/08/14 02:35:29;;;;;;;2.47;1.40;;;;;;;15.12;100.00;101812.47;6249135;28;20046;-82
2021/08/14 02:38:31;;;;;;;2.95;1.30;;;;;;;15.13;100.00;101822.16;6249639;28;20056;-81
2021/08/14 02:41:32;;;;;;;2.03;1.33;;;;;;;15.12;100.00;101816.94;6249540;28;20143;-81
2021/08/14 02:44:35;;;;;;;2.33;1.40;;;;;;;15.09;100.00;101830.34;6249062;28;20052;-80
2021/08/14 02:47:36;;;;;;;2.47;1.23;;;;;;;15.05;100.00;101826.16;6249444;28;20050;-81
2021/08/14 02:50:39;;;;;;;1.92;1.20;;;;;;;15.02;100.00;101829.81;6249450;28;20053;-81
2021/08/14 02:53:40;;;;;;;2.25;1.33;;;;;;;15.02;100.00;101836.91;6248990;28;20523;-80
2021/08/14 02:56:41;;;;;;;1.90;1.48;;;;;;;15.01;100.00;101836.06;6249489;28;20046;-80
2021/08/14 02:59:44;;;;;;;2.03;1.25;;;;;;;15.02;100.00;101824.53;6249080;28;20060;-81
2021/08/14 03:02:46;;;;;;;3.08;1.90;;;;;;;15.03;100.00;101812.13;6248776;28;20053;-80
2021/08/14 03:05:47;;;;;;;2.47;1.17;;;;;;;15.02;100.00;101813.09;6248576;28;20060;-81
2021/08/14 03:08:48;;;;;;;2.28;1.23;;;;;;;15.02;100.00;101810.44;6248721;28;20551;-81
2021/08/14 03:11:50;;;;;;;3.75;1.40;;;;;;;15.04;100.00;101811.22;6248719;28;20050;-80
2021/08/14 03:14:53;;;;;;;3.17;1.10;;;;;;;15.03;100.00;101799.75;6248490;28;20045;-81
2021/08/14 03:17:55;;;;;;;1.67;1.13;;;;;;;15.06;100.00;101802.25;6248827;28;20132;-81
2021/08/14 03:20:56;;;;;;;3.03;1.42;;;;;;;15.05;100.00;101815.56;6248581;28;20607;-81
2021/08/14 03:23:57;;;;;;;2.53;1.13;;;;;;;15.04;100.00;101814.72;6247993;28;20045;-81
2021/08/14 03:26:58;;;;;;;2.97;1.80;;;;;;;15.06;100.00;101807.53;6248348;28;20394;-81
2021/08/14 03:30:01;;;;;;;1.73;1.13;;;;;;;15.05;100.00;101800.53;6248274;28;20053;-81
2021/08/14 03:33:03;;;;;;;2.80;1.10;;;;;;;15.07;100.00;101805.75;6248401;28;20052;-81
2021/08/14 03:36:05;;;;;;;1.75;1.20;;;;;;;15.11;100.00;101800.19;6247918;28;20075;-81
2021/08/14 03:39:06;;;;;;;1.77;1.00;;;;;;;15.10;100.00;101803.78;6248495;28;20567;-81
2021/08/14 03:42:07;;;;;;;2.58;1.45;;;;;;;15.07;100.00;101800.44;6247407;28;20416;-80
2021/08/14 03:45:11;;;;;;;3.15;1.88;;;;;;;15.06;100.00;101807.53;6247857;28;20050;-81
2021/08/14 03:48:12;;;;;;;1.45;1.00;;;;;;;15.09;100.00;101817.13;6247794;28;20045;-80
2021/08/14 03:51:13;;;;;;;2.28;1.35;;;;;;;15.09;100.00;101810.03;6247439;28;20397;-81
2021/08/14 03:54:15;;;;;;;3.03;1.13;;;;;;;15.09;100.00;101812.69;6247304;28;20515;-81
2021/08/14 03:57:16;;;;;;;4.25;1.40;;;;;;;15.11;100.00;101812.59;6247308;28;20052;-80
2021/08/14 04:00:19;;;;;;;2.80;1.13;;;;;;;15.11;100.00;101809.94;6247327;28;20416;-81
2021/08/14 04:03:20;;;;;;;1.50;1.17;;;;;;;15.09;100.00;101809.19;6247257;28;20059;-81
2021/08/14 04:06:22;;;;;;;1.15;1.00;;;;;;;15.13;100.00;101808.06;6247407;28;20488;-81
2021/08/14 04:09:23;;;;;;;2.25;1.13;;;;;;;15.12;100.00;101815.13;6247093;28;20068;-81
2021/08/14 04:12:24;;;;;;;3.95;1.77;;;;;;;15.13;100.00;101805.44;6247253;28;20061;-81
2021/08/14 04:15:29;;;;;;;2.40;1.05;;;;;;;15.14;100.00;101809.78;6246821;28;20049;-80
2021/08/14 04:18:30;;;;;;;1.10;0.88;;;;;;;15.14;100.00;101809.78;6247299;28;20139;-81
2021/08/14 04:21:31;;;;;;;2.95;1.35;;;;;;;15.11;100.00;101815.22;6247025;28;20408;-81
2021/08/14 04:24:33;;;;;;;2.25;1.33;;;;;;;15.13;100.00;101810.72;6246506;28;20426;-80
2021/08/14 04:27:35;;;;;;;1.95;1.10;;;;;;;15.12;100.00;101814.28;6246859;28;20054;-80
2021/08/14 04:30:38;;;;;;;1.73;1.40;;;;;;;15.11;99.88;101813.44;6247046;28;20056;-81
2021/08/14 04:33:39;;;;;;;0.98;0.82;;;;;;;15.08;100.00;101808.31;6246535;28;20145;-80
2021/08/14 04:36:40;;;;;;;2.40;1.13;;;;;;;15.09;99.86;101806.53;6246848;28;20053;-81
2021/08/14 04:39:42;;;;;;;0.70;0.65;;;;;;;15.06;99.96;101804.03;6246704;28;20049;-81
2021/08/14 04:42:44;;;;;;;3.72;1.30;;;;;;;15.01;100.00;101809.59;6246719;28;20057;-81
2021/08/14 04:45:47;;;;;;;4.32;1.13;;;;;;;14.98;100.00;101807.09;6246693;28;20651;-81
2021/08/14 04:48:49;;;;;;;3.28;1.90;;;;;;;14.94;100.00;101816.16;6253880;28;20123;-81
2021/08/14 04:51:50;;;;;;;2.05;1.10;;;;;;;14.92;100.00;101823.31;6262138;28;20045;-81
2021/08/14 04:54:51;;;;;;;0.98;0.85;;;;;;;14.90;100.00;101825.22;6267042;28;20052;-81
2021/08/14 04:57:53;;;;;;;2.60;1.17;;;;;;;14.85;100.00;101824.59;6276253;28;20507;-80
2021/08/14 05:00:55;;;;;;;3.17;1.10;;;;;;;14.87;100.00;101813.00;6276385;28;20143;-80
2021/08/14 05:03:56;;;;;;;3.53;1.10;;;;;;;14.87;100.00;101822.72;6271699;28;20040;-80
2021/08/14 05:07:00;;;;;;;3.35;1.45;;;;;;;14.84;100.00;101818.44;6259472;28;20056;-80
2021/08/14 05:10:01;;;;;;;1.10;0.80;;;;;;;14.92;100.00;101823.31;6276168;28;20163;-80
2021/08/14 05:13:04;;;;;;;1.20;0.90;;;;;;;14.96;100.00;101812.50;6275997;28;20045;-80
2021/08/14 05:16:07;;;;;;;2.50;1.00;;;;;;;15.05;100.00;101810.28;6275734;28;20053;-81
2021/08/14 05:19:08;;;;;;;1.02;0.70;;;;;;;15.11;100.00;101807.28;6276102;28;20412;-81
2021/08/14 05:22:10;;;;;;;1.35;0.98;;;;;;;15.14;100.00;101807.97;6277315;28;20056;-81
2021/08/14 05:25:11;;;;;;;1.77;1.00;;;;;;;15.19;98.94;101811.22;6277191;28;20060;-81
2021/08/14 05:28:13;;;;;;;2.92;1.35;;;;;;;15.20;98.97;101810.28;6267062;28;20045;-81
2021/08/14 05:31:15;;;;;;;3.13;1.23;;;;;;;15.27;99.92;101802.00;6276335;28;20052;-80
2021/08/14 05:34:17;;;;;;;2.97;1.33;;;;;;;15.34;98.85;101806.00;6276368;28;20045;-79
2021/08/14 05:37:18;;;;;;;4.38;1.00;;;;;;;15.39;98.48;101807.44;6276686;28;20045;-81
2021/08/14 05:40:19;;;;;;;2.10;1.27;;;;;;;15.40;98.70;101808.31;6277889;28;20427;-80
2021/08/14 05:43:21;;;;;;;3.70;1.35;;;;;;;15.45;99.02;101807.13;6276696;28;20049;-80
2021/08/14 05:46:23;;;;;;;1.95;1.20;;;;;;;15.53;98.60;101805.81;6276556;28;20056;-81
2021/08/14 05:49:25;;;;;;;5.30;1.08;;;;;;;15.55;98.34;101807.44;6275699;28;20045;-81
2021/08/14 05:52:26;;;;;;;2.40;1.25;;;;;;;15.59;97.94;101805.47;6275468;28;20049;-80
2021/08/14 05:55:27;;;;;;;2.38;1.10;;;;;;;15.62;97.92;101806.13;6275009;28;20545;-80
2021/08/14 05:58:29;;;;;;;1.23;1.00;;;;;;;15.66;98.34;101804.19;6274848;28;20049;-81
2021/08/14 06:01:31;;;;;;;2.03;1.10;;;;;;;15.70;97.45;101811.88;6275020;28;20052;-80
2021/08/14 06:04:33;;;;;;;2.08;0.95;;;;;;;15.73;97.35;101814.38;6274385;28;20060;-80
2021/08/14 06:07:34;;;;;;;1.85;1.15;;;;;;;15.74;97.93;101815.22;6275012;28;20052;-80
2021/08/14 06:10:36;;;;;;;1.25;0.93;;;;;;;15.80;97.55;101812.19;6275143;28;20045;-80
2021/08/14 06:13:37;;;;;;;4.68;1.40;;;;;;;15.82;98.76;101807.69;6274583;28;20056;-80
2021/08/14 06:16:40;;;;;;;4.05;1.90;;;;;;;15.84;98.02;101803.13;6274684;28;20422;-81
2021/08/14 06:19:42;;;;;;;2.63;1.27;;;;;;;15.87;98.19;101808.25;6264952;28;20053;-80
2021/08/14 06:22:44;;;;;;;1.65;1.10;;;;;;;15.91;97.92;101801.84;6258212;28;20045;-81
2021/08/14 06:25:45;;;;;;;3.28;1.05;;;;;;;15.97;98.93;101790.84;6264168;28;20048;-81
2021/08/14 06:28:47;;;;;;;3.60;0.93;;;;;;;16.04;98.40;101791.38;6258856;28;20097;-81
2021/08/14 06:31:50;;;;;;;1.65;1.05;;;;;;;16.12;98.05;101788.22;6225896;28;20421;-80
2021/08/14 06:34:51;;;;;;;1.83;0.82;;;;;;;16.18;97.62;101787.88;6249131;28;20056;-80
2021/08/14 06:37:52;;;;;;;1.08;0.80;;;;;;;16.23;97.35;101786.66;6257801;28;20041;-80
2021/08/14 06:40:54;;;;;;;1.77;1.08;;;;;;;16.31;98.09;101786.19;6273575;28;20056;-80
2021/08/14 06:43:55;;;;;;;1.67;1.10;;;;;;;16.35;96.64;101781.53;6274075;28;20053;-80
2021/08/14 06:46:58;;;;;;;2.58;1.10;;;;;;;16.38;96.45;101782.22;6273834;28;20045;-81
2021/08/14 06:49:59;;;;;;;1.33;1.02;;;;;;;16.42;95.40;101786.38;6264746;28;20053;-80
2021/08/14 06:53:00;;;;;;;2.50;0.82;;;;;;;16.50;96.12;101793.88;6224560;28;20058;-80
2021/08/14 06:56:02;;;;;;;2.22;1.10;;;;;;;16.55;96.64;101786.47;6224495;28;20060;-80
2021/08/14 06:59:03;;;;;;;1.83;1.02;;;;;;;16.62;95.69;101787.81;6244109;28;20044;-80
2021/08/14 07:02:07;;;;;;;2.60;1.75;;;;;;;16.67;96.49;101792.84;6266257;28;20052;-80
2021/08/14 07:05:10;;;;;;;2.13;0.90;;;;;;;16.70;96.32;101793.47;6273162;28;20429;-80
2021/08/14 07:08:11;;;;;;;2.03;1.27;;;;;;;16.76;95.26;101792.31;6273723;28;20048;-80
2021/08/14 07:11:13;;;;;;;2.60;1.10;;;;;;;16.70;95.17;101787.31;6273409;28;20415;-80
2021/08/14 07:14:14;;;;;;;1.45;1.10;;;;;;;16.70;95.60;101789.97;6273105;28;20512;-80
2021/08/14 07:17:16;;;;;;;1.42;0.93;;;;;;;16.78;94.35;101790.41;6272748;28;20041;-80
2021/08/14 07:20:18;;;;;;;1.05;0.80;;;;;;;16.81;94.82;101797.31;6273407;28;20052;-79
2021/08/14 07:23:19;;;;;;;1.63;1.10;;;;;;;16.87;92.29;101791.63;6273086;28;20049;-80
2021/08/14 07:26:21;;;;;;;3.50;1.15;;;;;;;16.92;93.74;101795.69;6273161;28;20065;-81
2021/08/14 07:29:22;;;;;;;2.88;0.90;;;;;;;16.95;91.29;101798.16;6273307;28;20049;-81
2021/08/14 07:32:25;;;;;;;2.10;1.15;;;;;;;16.99;91.68;101797.00;6272914;28;20051;-81
2021/08/14 07:35:26;;;;;;;2.53;1.00;;;;;;;16.97;91.46;101795.38;6272863;28;20045;-81
2021/08/14 07:38:27;;;;;;;3.55;1.30;;;;;;;17.00;90.46;101795.22;6273211;28;20041;-80
2021/08/14 07:41:28;;;;;;;2.28;1.17;;;;;;;16.99;91.46;101794.34;6272913;28;20063;-80
2021/08/14 07:44:30;;;;;;;2.42;1.30;;;;;;;17.05;91.20;101789.59;6271938;28;20056;-80
2021/08/14 07:47:32;;;;;;;3.83;2.47;;;;;;;17.17;89.43;101792.34;6272698;28;20049;-78
2021/08/14 07:50:35;;;;;;;1.67;1.00;;;;;;;17.23;89.04;101791.06;6272400;28;20053;-79
2021/08/14 07:53:37;;;;;;;5.72;1.45;;;;;;;17.29;88.19;101797.78;6271408;28;20045;-80
2021/08/14 07:56:38;;;;;;;1.58;1.20;;;;;;;17.35;89.00;101789.41;6271217;28;20056;-81
2021/08/14 07:59:39;;;;;;;4.03;1.27;;;;;;;17.39;89.26;101786.44;6272196;28;20052;-80
2021/08/14 08:02:42;;;;;;;2.42;1.10;;;;;;;17.58;87.84;101782.63;6272316;28;20048;-80
2021/08/14 08:05:45;;;;;;;5.00;1.15;;;;;;;17.59;86.51;101777.19;6272237;28;20053;-80
2021/08/14 08:08:46;;;;;;;1.50;1.20;;;;;;;17.66;86.97;101773.16;6272277;28;20052;-80
2021/08/14 08:11:47;;;;;;;2.60;1.85;;;;;;;17.77;87.70;101784.94;6272289;28;20076;-80
2021/08/14 08:14:49;;;;;;;4.22;1.05;;;;;;;17.81;88.33;101773.13;6271445;28;20052;-78
2021/08/14 08:17:52;;;;;;;1.10;0.80;;;;;;;17.90;87.53;101772.50;6271708;28;20397;-81
2021/08/14 08:20:53;;;;;;;4.28;1.70;;;;;;;17.99;85.72;101777.19;6272418;28;20052;-81
2021/08/14 08:23:54;;;;;;;2.55;1.00;;;;;;;18.10;83.45;101769.31;6272375;28;20056;-78
2021/08/14 08:26:56;;;;;;;2.75;1.08;;;;;;;18.15;85.16;101767.19;6272050;28;20049;-78
2021/08/14 08:29:57;;;;;;;1.33;0.88;;;;;;;18.24;84.30;101757.72;6266480;28;20042;-80
2021/08/14 08:33:00;;;;;;;2.80;1.40;;;;;;;18.35;83.25;101762.28;6255875;28;20052;-80
2021/08/14 08:36:01;;;;;;;4.03;1.23;;;;;;;18.47;81.05;101764.09;6261436;28;20053;-80
2021/08/14 08:39:03;;;;;;;3.40;1.63;;;;;;;18.62;81.79;101765.69;6272093;28;20045;-81
2021/08/14 08:42:07;;;;;;;2.45;1.35;;;;;;;18.71;80.85;101748.22;6271873;28;20060;-80
2021/08/14 08:45:09;;;;;;;5.00;2.08;;;;;;;18.77;80.19;101746.97;6271566;28;20052;-75
2021/08/14 08:48:18;;;;;;;5.03;2.63;;;;;;;18.85;78.46;101753.44;6272694;28;20053;-75
2021/08/14 08:51:24;;;;;;;3.03;1.30;;;;;;;18.91;78.90;101745.00;6259385;28;20614;-77
2021/08/14 08:54:25;;;;;;;5.63;2.65;;;;;;;18.99;77.25;101739.13;6271499;28;20056;-79
2021/08/14 08:57:27;;;;;;;4.60;2.33;;;;;;;19.01;75.95;101739.84;6271514;28;20413;-79
2021/08/14 09:00:28;;;;;;;5.20;1.85;;;;;;;19.05;77.42;101738.66;6272650;28;20048;-80
2021/08/14 09:03:32;;;;;;;4.72;2.35;;;;;;;19.20;75.54;101737.50;6271623;28;20045;-79
2021/08/14 09:06:40;;;;;;;2.25;1.65;;;;;;;19.24;75.82;101744.31;6267313;28;20488;-79
2021/08/14 09:09:41;;;;;;;2.65;1.67;;;;;;;19.20;75.52;101734.00;6257619;28;20428;-78
2021/08/14 09:12:44;;;;;;;6.47;1.40;;;;;;;19.15;77.36;101731.69;6261161;28;20045;-81
2021/08/14 09:15:46;;;;;;;3.20;1.40;;;;;;;19.29;76.44;101736.00;6257088;28;20045;-77
2021/08/14 09:18:57;;;;;;;5.40;2.15;;;;;;;19.47;74.38;101742.59;6269452;28;20041;-79
2021/08/14 09:22:12;;;;;;;3.20;1.63;;;;;;;19.54;76.49;101740.34;6239548;28;20057;-80
2021/08/14 09:25:15;;;;;;;3.63;1.90;;;;;;;19.55;75.81;101728.72;6232052;28;20045;-80
2021/08/14 09:28:18;;;;;;;2.35;1.58;;;;;;;19.56;74.60;101724.22;6234347;28;20046;-79
2021/08/14 09:31:20;;;;;;;5.18;1.27;;;;;;;19.59;75.81;101714.19;6264127;28;20045;-77
2021/08/14 09:34:24;;;;;;;3.55;1.92;;;;;;;19.70;72.49;101713.38;6272090;28;20500;-80
2021/08/14 09:37:35;;;;;;;1.73;1.20;;;;;;;19.75;72.75;101712.06;6271651;28;20419;-79
2021/08/14 09:40:39;;;;;;;2.50;1.40;;;;;;;19.80;72.06;101716.19;6272357;28;20052;-79
2021/08/14 09:43:41;;;;;;;2.88;1.38;;;;;;;19.90;69.38;101723.38;6265306;28;20488;-76
2021/08/14 09:46:43;;;;;;;2.20;1.58;;;;;;;19.89;69.08;101708.31;6275429;28;20045;-76
2021/08/14 09:49:54;;;;;;;2.40;1.23;;;;;;;19.88;71.27;101705.78;6276151;28;20044;-77
2021/08/14 09:53:09;;;;;;;1.90;1.25;;;;;;;19.98;70.18;101701.44;6277012;28;20194;-78
2021/08/14 09:56:13;;;;;;;3.80;1.50;;;;;;;20.07;69.45;101702.53;6277486;28;20182;-78
2021/08/14 09:59:17;;;;;;;2.03;1.25;;;;;;;20.18;71.42;101695.41;6277933;28;20048;-78
2021/08/14 10:02:23;;;;;;;2.35;1.55;;;;;;;20.28;68.91;101695.53;6277634;28;20488;-79
2021/08/14 10:05:25;;;;;;;1.60;1.23;;;;;;;20.27;68.35;101700.00;6274956;28;20045;-75
2021/08/14 10:08:28;;;;;;;4.00;1.48;;;;;;;20.30;67.76;101690.03;6275248;28;20048;-77
2021/08/14 10:11:29;;;;;;;1.75;1.48;;;;;;;20.32;69.68;101675.63;6261705;28;20428;-77
2021/08/14 10:14:31;;;;;;;2.10;1.38;;;;;;;20.39;69.92;101690.16;6236673;28;20050;-78
2021/08/14 10:17:35;;;;;;;2.53;1.40;;;;;;;20.50;66.69;101676.00;6246008;28;20061;-77
2021/08/14 10:20:37;;;;;;;2.17;1.05;;;;;;;20.55;64.99;101676.47;6230410;28;20058;-78
2021/08/14 10:23:40;;;;;;;4.13;0.93;;;;;;;20.58;66.28;101678.91;6251212;28;20069;-78
2021/08/14 10:26:42;;;;;;;5.25;1.63;;;;;;;20.65;66.47;101666.75;6242845;28;20064;-78
2021/08/14 10:29:46;;;;;;;3.60;1.40;;;;;;;20.74;66.21;101666.00;6257625;28;20037;-78
2021/08/14 10:32:47;;;;;;;2.53;1.33;;;;;;;20.84;65.83;101651.88;6260006;28;20041;-79
2021/08/14 10:35:50;;;;;;;2.58;1.10;;;;;;;20.93;66.42;101665.31;6238545;28;20104;-77
2021/08/14 10:38:52;;;;;;;3.17;1.58;;;;;;;21.08;62.01;101660.56;6248706;28;20493;-75
2021/08/14 10:41:55;;;;;;;3.08;1.23;;;;;;;21.02;62.88;101655.69;6261772;28;20056;-77
2021/08/14 10:45:13;;;;;;;2.95;1.10;;;;;;;21.15;65.32;101656.38;6268324;28;20045;-77
2021/08/14 10:48:14;;;;;;;3.78;1.33;;;;;;;21.20;65.53;101653.31;6228755;28;20050;-77
2021/08/14 10:51:17;;;;;;;2.72;0.98;;;;;;;21.47;63.89;101644.81;6243897;28;20049;-78
2021/08/14 10:55:02;;;;;;;1.92;1.10;;;;;;;21.52;62.82;101634.56;6253644;28;20064;-79
2021/08/14 10:58:22;;;;;;;1.65;1.02;;;;;;;21.69;65.75;101642.00;6261638;28;20041;-78
2021/08/14 11:01:32;;;;;;;2.53;1.25;;;;;;;21.79;61.38;101637.53;6254279;28;20099;-81
2021/08/14 11:04:34;;;;;;;5.20;1.25;;;;;;;21.90;61.44;101635.78;6224614;28;20049;-76
2021/08/14 11:07:42;;;;;;;2.08;1.02;;;;;;;21.89;61.17;101628.72;6230904;28;20045;-78
2021/08/14 11:10:43;;;;;;;1.25;1.00;;;;;;;22.01;60.53;101616.94;6239002;28;20411;-81
2021/08/14 11:13:44;;;;;;;2.50;1.27;;;;;;;22.15;59.83;101621.13;6225474;28;20042;-76
2021/08/14 11:17:00;;;;;;;2.15;0.90;;;;;;;22.26;60.95;101621.03;6235345;28;20053;-76
2021/08/14 11:20:01;;;;;;;1.80;1.10;;;;;;;22.56;61.35;101613.88;6226221;28;20162;-77
2021/08/14 11:23:22;;;;;;;5.05;1.08;;;;;;;22.68;58.51;101605.59;6224045;28;20420;-81
2021/08/14 11:26:32;;;;;;;3.55;0.82;;;;;;;22.87;58.19;101602.06;6234850;28;20540;-78
2021/08/14 11:29:34;;;;;;;3.97;0.80;;;;;;;23.11;58.32;101601.66;6240831;28;20045;-78
2021/08/14 11:32:37;;;;;;;0.85;0.70;;;;;;;23.25;54.20;101592.34;6260245;28;20380;-77
2021/08/14 11:35:40;;;;;;;1.25;0.80;;;;;;;23.18;55.17;101591.22;6264762;28;20052;-78
2021/08/14 11:38:43;;;;;;;1.35;0.82;;;;;;;23.47;56.82;101597.38;6273477;28;20056;-78
2021/08/14 11:41:45;;;;;;;3.13;0.95;;;;;;;23.75;52.88;101597.47;6267562;28;20059;-75
2021/08/14 11:44:54;;;;;;;3.30;1.17;;;;;;;23.89;55.15;101599.69;6248018;28;20077;-77
2021/08/14 11:47:57;;;;;;;0.82;0.60;;;;;;;24.11;54.65;101595.75;6248477;28;20159;-78
2021/08/14 11:50:59;;;;;;;1.33;0.90;;;;;;;24.06;52.91;101600.72;6248354;28;20045;-78
2021/08/14 11:54:06;;;;;;;1.92;1.00;;;;;;;24.03;51.63;101599.19;6238891;28;20056;-79
2021/08/14 11:57:09;;;;;;;1.75;0.80;;;;;;;24.30;50.24;101597.50;6231947;28;20056;-75
2021/08/14 12:00:25;;;;;;;1.48;0.65;;;;;;;24.49;50.35;101593.88;6235345;28;20046;-76
2021/08/14 12:03:27;;;;;;;1.92;0.70;;;;;;;24.68;47.81;101593.72;6229090;28;20046;-74
2021/08/14 12:06:30;;;;;;;1.77;0.70;;;;;;;24.63;49.54;101590.66;6245420;28;20045;-75
2021/08/14 12:09:32;;;;;;;1.80;1.00;;;;;;;25.03;49.75;101592.03;6246882;28;20049;-76
2021/08/14 12:12:34;;;;;;;1.85;0.73;;;;;;;24.36;48.83;101594.19;6233060;28;20056;-77
2021/08/14 12:15:40;;;;;;;0.98;0.70;;;;;;;24.22;51.33;101592.88;6252947;28;20045;-75
2021/08/14 12:18:42;;;;;;;1.48;0.88;;;;;;;23.88;52.91;101594.44;6258981;28;20037;-75
2021/08/14 12:21:45;;;;;;;1.33;0.73;;;;;;;23.95;50.84;101601.78;6262928;28;20180;-75
2021/08/14 12:24:49;;;;;;;3.50;0.80;;;;;;;24.49;51.53;101575.91;6247092;28;20058;-76
2021/08/14 12:27:51;;;;;;;4.68;1.00;;;;;;;24.96;51.11;101586.41;6247294;28;20045;-76
2021/08/14 12:30:52;;;;;;;1.83;0.93;;;;;;;25.24;48.99;101579.09;6237320;28;20122;-76
2021/08/14 12:33:55;;;;;;;2.03;1.30;;;;;;;24.98;49.90;101579.06;6222293;28;20054;-76
2021/08/14 12:37:06;;;;;;;1.27;0.85;;;;;;;24.77;49.08;101586.59;6223109;28;20058;-76
2021/08/14 12:40:10;;;;;;;1.15;0.70;;;;;;;24.31;50.37;101583.06;6222823;28;20054;-77
2021/08/14 12:43:15;;;;;;;0.75;0.45;;;;;;;23.86;52.89;101586.56;6223125;28;20046;-77
2021/08/14 12:46:18;;;;;;;1.48;0.80;;;;;;;23.66;54.68;101583.06;6222984;28;20045;-77
2021/08/14 12:49:23;;;;;;;1.30;0.98;;;;;;;23.53;52.98;101572.66;6222859;28;20132;-75
2021/08/14 12:52:24;;;;;;;1.27;0.90;;;;;;;23.98;53.83;101576.44;6222082;28;20053;-76
2021/08/14 12:55:33;;;;;;;1.17;0.75;;;;;;;24.49;51.91;101572.38;6222361;28;20513;-77
2021/08/14 12:58:34;;;;;;;1.87;0.90;;;;;;;24.46;52.26;101562.75;6223214;28;20061;-76
2021/08/14 13:01:35;;;;;;;1.25;0.70;;;;;;;24.89;50.06;101569.22;6229269;28;20049;-74
2021/08/14 13:04:39;;;;;;;1.48;1.00;;;;;;;24.51;53.06;101570.38;6237328;28;20041;-78
2021/08/14 13:07:40;;;;;;;1.00;0.77;;;;;;;24.47;52.22;101567.13;6260708;28;20049;-78
2021/08/14 13:10:45;;;;;;;2.58;0.80;;;;;;;24.26;52.92;101564.72;6272400;28;20051;-78
2021/08/14 13:13:46;;;;;;;1.63;0.95;;;;;;;23.91;53.66;101570.00;6265090;28;20042;-78
2021/08/14 13:16:48;;;;;;;1.60;0.80;;;;;;;23.54;53.81;101560.94;6256751;28;20052;-78
2021/08/14 13:19:49;;;;;;;1.85;0.68;;;;;;;23.74;53.95;101571.63;6250408;28;20042;-76
2021/08/14 13:22:51;;;;;;;1.17;0.93;;;;;;;24.10;52.47;101559.16;6258804;28;20045;-78
2021/08/14 13:25:55;;;;;;;3.33;1.00;;;;;;;24.23;54.41;101558.78;6274877;28;20476;-78
2021/08/14 13:28:56;;;;;;;1.80;1.00;;;;;;;24.05;53.07;101551.53;6275606;28;20053;-78
2021/08/14 13:31:58;;;;;;;1.63;0.85;;;;;;;24.00;54.50;101561.88;6276421;28;20385;-78
2021/08/14 13:34:59;;;;;;;2.58;1.00;;;;;;;23.96;55.33;101556.97;6274868;28;20044;-78
2021/08/14 13:38:00;;;;;;;1.65;0.70;;;;;;;23.92;55.01;101559.09;6268745;28;20052;-79
2021/08/14 13:41:03;;;;;;;2.33;1.10;;;;;;;23.93;55.54;101550.03;6276794;28;20049;-80
2021/08/14 13:44:06;;;;;;;2.17;1.38;;;;;;;23.84;53.37;101556.31;6276106;28;20068;-81
2021/08/14 13:47:07;;;;;;;0.95;0.70;;;;;;;23.81;53.78;101553.09;6274465;28;20134;-75
2021/08/14 13:50:10;;;;;;;1.00;0.65;;;;;;;24.51;52.22;101549.72;6272908;28;20484;-76
2021/08/14 13:53:12;;;;;;;0.98;0.63;;;;;;;24.53;52.34;101544.19;6272971;28;20045;-76
2021/08/14 13:56:14;;;;;;;1.73;0.85;;;;;;;24.17;52.05;101537.91;6272345;28;20175;-76
2021/08/14 13:59:15;;;;;;;1.67;0.75;;;;;;;24.38;50.39;101543.88;6273113;28;20041;-76
2021/08/14 14:02:17;;;;;;;1.33;0.60;;;;;;;24.18;52.66;101551.19;6274058;28;20496;-75
2021/08/14 14:05:18;;;;;;;1.15;0.52;;;;;;;24.21;52.88;101539.28;6274483;28;20053;-76
2021/08/14 14:08:20;;;;;;;2.25;1.00;;;;;;;24.35;51.19;101541.47;6274929;28;20045;-77